createdAt,value
2018-08-22T00:02:14.427Z,9.83
2018-08-22T00:04:43.658Z,9.13
2018-08-22T00:07:12.707Z,10.20
2018-08-22T00:09:41.792Z,9.63
2018-08-22T00:12:11.869Z,10.73
2018-08-22T00:14:41.623Z,10.07
2018-08-22T00:17:10.690Z,9.98
2018-08-22T00:19:39.736Z,10.60
2018-08-22T00:22:08.816Z,10.83
2018-08-22T00:24:37.831Z,9.78
2018-08-22T00:27:06.860Z,9.08
2018-08-22T00:29:35.914Z,9.83
2018-08-22T00:32:05.245Z,9.50
2018-08-22T00:34:34.403Z,10.75
2018-08-22T00:37:03.448Z,9.27
2018-08-22T00:39:33.149Z,10.50
2018-08-22T00:42:03.292Z,10.97
2018-08-22T00:44:33.516Z,10.20
2018-08-22T00:47:02.520Z,9.47
2018-08-22T00:49:31.749Z,9.87
2018-08-22T00:52:00.761Z,10.23
2018-08-22T00:54:29.811Z,9.70
2018-08-22T00:56:58.827Z,9.70
2018-08-22T00:59:27.845Z,10.57
2018-08-22T01:01:56.857Z,9.70
2018-08-22T01:04:25.955Z,10.45
2018-08-22T01:06:54.993Z,9.53
2018-08-22T01:09:23.971Z,9.77
2018-08-22T01:11:53.087Z,9.37
2018-08-22T01:14:22.368Z,9.80
2018-08-22T01:16:51.407Z,10.23
2018-08-22T01:19:20.439Z,9.70
2018-08-22T01:21:49.520Z,10.10
2018-08-22T01:24:18.581Z,9.15
2018-08-22T01:26:47.664Z,9.67
2018-08-22T01:29:16.667Z,9.10
2018-08-22T01:31:46.068Z,9.13
2018-08-22T01:34:15.354Z,9.08
2018-08-22T01:36:44.472Z,8.63
2018-08-22T01:39:13.563Z,10.37
2018-08-22T01:41:42.713Z,10.10
2018-08-22T01:44:11.958Z,10.40
2018-08-22T01:46:41.299Z,10.40
2018-08-22T01:49:10.499Z,9.80
2018-08-22T01:51:39.483Z,9.77
2018-08-22T01:54:08.588Z,9.23
2018-08-22T01:56:37.640Z,9.93
2018-08-22T01:59:06.821Z,9.73
2018-08-22T02:01:35.896Z,9.87
2018-08-22T02:04:04.968Z,9.87
2018-08-22T02:06:34.165Z,10.07
2018-08-22T02:09:03.269Z,9.90
2018-08-22T02:11:33.328Z,9.78
2018-08-22T02:14:02.396Z,8.80
2018-08-22T02:16:31.581Z,9.63
2018-08-22T02:19:00.638Z,9.90
2018-08-22T02:21:29.654Z,9.63
2018-08-22T02:23:58.839Z,9.73
2018-08-22T02:26:27.875Z,9.15
2018-08-22T02:28:56.950Z,8.80
2018-08-22T02:31:26.118Z,9.10
2018-08-22T02:33:55.248Z,9.60
2018-08-22T02:36:24.384Z,9.47
2018-08-22T02:38:53.482Z,9.87
2018-08-22T02:41:29.395Z,9.80
2018-08-22T02:43:58.539Z,10.10
2018-08-22T02:46:28.033Z,9.70
2018-08-22T02:48:57.834Z,10.13
2018-08-22T02:51:27.149Z,9.13
2018-08-22T02:53:56.535Z,9.27
2018-08-22T02:56:25.749Z,9.43
2018-08-22T02:58:54.845Z,9.37
2018-08-22T03:01:23.990Z,8.77
2018-08-22T03:03:53.084Z,10.40
2018-08-22T03:06:22.171Z,10.10
2018-08-22T03:08:51.284Z,10.20
2018-08-22T03:11:20.311Z,9.80
2018-08-22T03:13:49.371Z,9.67
2018-08-22T03:16:18.536Z,10.13
2018-08-22T03:18:47.706Z,9.95
2018-08-22T03:21:16.967Z,10.08
2018-08-22T03:23:46.145Z,11.13
2018-08-22T03:26:15.390Z,10.80
2018-08-22T03:28:45.560Z,10.13
2018-08-22T03:31:14.690Z,10.70
2018-08-22T03:33:43.768Z,10.30
2018-08-22T03:36:12.921Z,10.03
2018-08-22T03:38:42.080Z,10.67
2018-08-22T03:41:11.233Z,10.70
2018-08-22T03:43:40.548Z,10.70
2018-08-22T03:46:09.643Z,9.87
2018-08-22T03:48:38.873Z,10.03
2018-08-22T03:51:08.069Z,10.27
2018-08-22T03:53:37.606Z,10.53
2018-08-22T03:56:07.868Z,9.77
2018-08-22T03:58:37.005Z,10.63
2018-08-22T04:01:06.182Z,10.53
2018-08-22T04:03:35.290Z,10.87
2018-08-22T04:06:04.377Z,11.83
2018-08-22T04:08:33.483Z,12.47
2018-08-22T04:11:02.726Z,11.97
2018-08-22T04:13:31.868Z,12.15
2018-08-22T04:16:01.218Z,12.83
2018-08-22T04:18:31.445Z,12.50
2018-08-22T04:21:00.661Z,11.83
2018-08-22T04:23:29.799Z,11.67
2018-08-22T04:25:58.886Z,11.50
2018-08-22T04:28:27.985Z,11.67
2018-08-22T04:30:57.174Z,12.20
2018-08-22T04:33:26.233Z,12.17
2018-08-22T04:35:55.590Z,12.23
2018-08-22T04:38:25.687Z,12.23
2018-08-22T04:40:54.898Z,12.97
2018-08-22T04:43:24.036Z,12.60
2018-08-22T04:45:53.258Z,13.63
2018-08-22T04:48:22.425Z,12.70
2018-08-22T04:50:51.528Z,12.60
2018-08-22T04:53:20.649Z,13.90
2018-08-22T04:55:50.530Z,13.97
2018-08-22T04:58:19.666Z,13.37
2018-08-22T05:00:49.809Z,14.18
2018-08-22T05:03:18.943Z,13.33
2018-08-22T05:05:48.184Z,14.90
2018-08-22T05:08:17.392Z,14.73
2018-08-22T05:10:46.512Z,14.90
2018-08-22T05:13:16.085Z,14.53
2018-08-22T05:15:46.020Z,14.35
2018-08-22T05:18:15.436Z,15.07
2018-08-22T05:20:44.627Z,15.23
2018-08-22T05:23:13.860Z,14.77
2018-08-22T05:25:43.135Z,14.60
2018-08-22T05:28:12.832Z,14.37
2018-08-22T05:30:42.120Z,15.07
2018-08-22T05:33:11.573Z,14.87
2018-08-22T05:35:41.185Z,15.53
2018-08-22T05:38:11.045Z,16.67
2018-08-22T05:40:40.484Z,16.43
2018-08-22T05:43:09.602Z,17.10
2018-08-22T05:45:38.875Z,16.77
2018-08-22T05:48:07.990Z,17.00
2018-08-22T05:50:37.899Z,16.42
2018-08-22T05:53:07.096Z,16.03
2018-08-22T05:55:36.349Z,16.70
2018-08-22T05:58:05.901Z,16.77
2018-08-22T06:00:35.212Z,16.70
2018-08-22T06:03:04.268Z,18.03
2018-08-22T06:05:33.340Z,18.80
2018-08-22T06:08:02.465Z,17.47
2018-08-22T06:10:31.599Z,17.13
2018-08-22T06:13:00.828Z,17.63
2018-08-22T06:15:29.892Z,18.57
2018-08-22T06:17:59.150Z,17.73
2018-08-22T06:20:28.668Z,18.27
2018-08-22T06:22:57.840Z,17.80
2018-08-22T06:25:27.036Z,18.27
2018-08-22T06:27:56.115Z,19.40
2018-08-22T06:30:25.267Z,20.35
2018-08-22T06:32:54.634Z,18.80
2018-08-22T06:35:23.784Z,21.27
2018-08-22T06:37:52.905Z,20.12
2018-08-22T06:40:23.462Z,20.30
2018-08-22T06:42:52.961Z,20.83
2018-08-22T06:45:22.090Z,19.50
2018-08-22T06:47:51.411Z,22.00
2018-08-22T06:50:21.309Z,20.10
2018-08-22T06:52:50.310Z,19.83
2018-08-22T06:55:19.534Z,20.32
2018-08-22T06:57:48.803Z,18.57
2018-08-22T07:00:17.932Z,20.57
2018-08-22T07:02:47.267Z,21.50
2018-08-22T07:05:16.502Z,21.67
2018-08-22T07:07:45.711Z,23.05
2018-08-22T07:10:15.130Z,22.35
2018-08-22T07:12:44.448Z,23.37
2018-08-22T07:15:13.802Z,23.30
2018-08-22T07:17:44.419Z,24.00
2018-08-22T07:20:14.037Z,22.83
2018-08-22T07:22:43.708Z,24.70
2018-08-22T07:25:13.242Z,25.63
2018-08-22T07:27:42.392Z,28.17
2018-08-22T07:30:11.774Z,27.85
2018-08-22T07:32:41.052Z,27.73
2018-08-22T07:35:11.806Z,27.05
2018-08-22T07:37:41.851Z,27.32
2018-08-22T07:40:11.629Z,29.15
2018-08-22T07:42:41.050Z,27.90
2018-08-22T07:45:10.254Z,28.57
2018-08-22T07:47:39.520Z,28.52
2018-08-22T07:50:10.379Z,28.45
2018-08-22T07:52:52.547Z,30.12
2018-08-22T07:55:23.185Z,30.00
2018-08-22T07:57:52.524Z,30.95
2018-08-22T08:00:21.685Z,28.02
2018-08-22T08:02:51.085Z,28.57
2018-08-22T08:05:20.257Z,27.32
2018-08-22T08:07:49.742Z,28.98
2018-08-22T08:10:24.457Z,26.93
2018-08-22T08:12:54.231Z,28.12
2018-08-22T08:15:23.801Z,26.97
2018-08-22T08:17:53.525Z,30.05
2018-08-22T08:20:23.467Z,26.40
2018-08-22T08:22:52.747Z,26.82
2018-08-22T08:25:22.099Z,26.07
2018-08-22T08:27:51.416Z,25.57
2018-08-22T08:30:20.714Z,24.32
2018-08-22T08:32:49.920Z,23.05
2018-08-22T08:35:19.281Z,24.75
2018-08-22T08:37:48.696Z,24.50
2018-08-22T08:40:18.787Z,21.80
2018-08-22T08:42:48.063Z,22.30
2018-08-22T08:45:17.261Z,23.03
2018-08-22T08:47:46.584Z,23.02
2018-08-22T08:50:16.110Z,23.57
2018-08-22T08:52:45.549Z,22.77
2018-08-22T08:55:14.956Z,23.95
2018-08-22T08:57:44.732Z,22.68
2018-08-22T09:00:14.295Z,19.00
2018-08-22T09:02:45.055Z,17.55
2018-08-22T09:05:14.506Z,17.17
2018-08-22T09:07:44.053Z,17.92
2018-08-22T09:10:13.530Z,20.25
2018-08-22T09:12:42.714Z,19.27
2018-08-22T09:15:12.006Z,17.57
2018-08-22T09:17:41.467Z,14.83
2018-08-22T09:20:11.257Z,20.83
2018-08-22T09:22:40.486Z,18.10
2018-08-22T09:25:09.860Z,21.62
2018-08-22T09:27:39.696Z,16.70
2018-08-22T09:30:08.993Z,15.05
2018-08-22T09:32:38.177Z,14.07
2018-08-22T09:35:07.489Z,17.10
2018-08-22T09:37:36.658Z,17.10
2018-08-22T09:40:06.156Z,14.83
2018-08-22T09:42:35.599Z,17.62
2018-08-22T09:45:05.140Z,16.45
2018-08-22T09:47:34.968Z,13.95
2018-08-22T09:50:04.315Z,17.95
2018-08-22T09:52:33.755Z,18.30
2018-08-22T09:55:04.604Z,19.55
2018-08-22T09:57:33.790Z,19.12
2018-08-22T10:00:03.508Z,20.08
2018-08-22T10:02:32.810Z,16.60
2018-08-22T10:05:02.161Z,20.02
2018-08-22T10:07:31.973Z,20.30
2018-08-22T10:10:01.393Z,18.05
2018-08-22T10:12:30.424Z,18.02
2018-08-22T10:14:59.722Z,18.80
2018-08-22T10:17:29.052Z,18.85
2018-08-22T10:19:58.388Z,17.27
2018-08-22T10:22:27.586Z,17.27
2018-08-22T10:24:56.895Z,16.93
2018-08-22T10:27:26.129Z,17.62
2018-08-22T10:29:55.397Z,15.85
2018-08-22T10:32:24.500Z,18.98
2018-08-22T10:34:53.721Z,19.82
2018-08-22T10:37:22.845Z,18.40
2018-08-22T10:39:52.279Z,14.70
2018-08-22T10:42:21.925Z,17.15
2018-08-22T10:44:51.454Z,18.50
2018-08-22T10:47:20.905Z,19.32
2018-08-22T10:49:50.177Z,17.20
2018-08-22T10:52:19.474Z,20.57
2018-08-22T10:54:48.750Z,20.37
2018-08-22T10:57:18.156Z,17.54
2018-08-22T10:59:47.713Z,20.57
2018-08-22T11:02:18.008Z,19.92
2018-08-22T11:04:47.651Z,22.30
2018-08-22T11:07:17.802Z,22.32
2018-08-22T11:09:47.457Z,23.40
2018-08-22T11:12:18.257Z,20.25
2018-08-22T11:14:47.584Z,23.00
2018-08-22T11:17:16.914Z,22.00
2018-08-22T11:19:46.117Z,22.42
2018-08-22T11:22:32.624Z,22.20
2018-08-22T11:25:18.897Z,22.13
2018-08-22T11:28:05.217Z,17.70
2018-08-22T11:30:51.490Z,19.07
2018-08-22T11:33:37.757Z,20.90
2018-08-22T11:36:05.493Z,16.43
2018-08-22T11:38:34.722Z,14.25
2018-08-22T11:41:04.300Z,16.25
2018-08-22T11:43:33.986Z,17.62
2018-08-22T11:46:03.631Z,19.00
2018-08-22T11:48:32.937Z,23.12
2018-08-22T11:51:02.441Z,23.67
2018-08-22T11:53:32.476Z,21.77
2018-08-22T11:56:01.902Z,19.75
2018-08-22T11:58:31.160Z,20.82
2018-08-22T12:01:00.996Z,19.70
2018-08-22T12:03:30.243Z,19.73
2018-08-22T12:05:59.780Z,19.73
2018-08-22T12:08:29.718Z,20.08
2018-08-22T12:10:59.161Z,20.55
2018-08-22T12:13:28.615Z,22.13
2018-08-22T12:15:58.651Z,18.45
2018-08-22T12:18:27.926Z,20.73
2018-08-22T12:20:57.181Z,20.02
2018-08-22T12:23:26.449Z,20.95
2018-08-22T12:25:55.816Z,20.02
2018-08-22T12:28:25.439Z,19.77
2018-08-22T12:30:54.830Z,21.10
2018-08-22T12:33:24.058Z,20.50
2018-08-22T12:35:53.384Z,18.00
2018-08-22T12:38:23.096Z,20.57
2018-08-22T12:40:52.723Z,18.90
2018-08-22T12:43:22.116Z,20.83
2018-08-22T12:45:51.859Z,20.50
2018-08-22T12:48:21.112Z,20.43
2018-08-22T12:50:50.320Z,18.98
2018-08-22T12:53:19.771Z,19.60
2018-08-22T12:55:49.272Z,19.17
2018-08-22T12:58:18.432Z,19.60
2018-08-22T13:00:47.584Z,18.52
2018-08-22T13:03:17.093Z,19.32
2018-08-22T13:05:46.322Z,19.15
2018-08-22T13:08:16.410Z,18.02
2018-08-22T13:10:45.472Z,20.55
2018-08-22T13:13:14.869Z,19.90
2018-08-22T13:15:44.152Z,20.57
2018-08-22T13:18:13.450Z,19.60
2018-08-22T13:20:42.745Z,19.47
2018-08-22T13:23:12.031Z,18.42
2018-08-22T13:25:41.619Z,19.45
2018-08-22T13:28:11.419Z,22.50
2018-08-22T13:30:41.897Z,22.25
2018-08-22T13:33:11.201Z,21.30
2018-08-22T13:35:40.411Z,23.57
2018-08-22T13:38:09.771Z,21.33
2018-08-22T13:40:41.603Z,17.95
2018-08-22T13:43:11.035Z,21.07
2018-08-22T13:45:40.220Z,18.80
2018-08-22T13:48:09.493Z,20.23
2018-08-22T13:50:39.023Z,20.45
2018-08-22T13:53:08.625Z,21.10
2018-08-22T13:55:37.826Z,20.77
2018-08-22T13:58:08.452Z,23.32
2018-08-22T14:00:37.953Z,25.15
2018-08-22T14:03:07.538Z,23.98
2018-08-22T14:05:36.793Z,20.70
2018-08-22T14:08:05.945Z,18.80
2018-08-22T14:10:35.315Z,23.28
2018-08-22T14:13:04.628Z,19.77
2018-08-22T14:15:34.076Z,21.73
2018-08-22T14:18:03.446Z,21.27
2018-08-22T14:20:32.489Z,22.82
2018-08-22T14:23:01.566Z,22.50
2018-08-22T14:25:30.820Z,25.88
2018-08-22T14:28:00.676Z,21.57
2018-08-22T14:30:30.088Z,19.70
2018-08-22T14:32:59.582Z,19.87
2018-08-22T14:35:28.820Z,23.23
2018-08-22T14:37:58.130Z,24.53
2018-08-22T14:40:27.309Z,24.95
2018-08-22T14:42:56.429Z,24.98
2018-08-22T14:45:25.773Z,22.67
2018-08-22T14:47:54.949Z,24.80
2018-08-22T14:50:24.152Z,24.05
2018-08-22T14:52:53.416Z,24.02
2018-08-22T14:55:22.660Z,21.27
2018-08-22T14:57:51.964Z,19.70
2018-08-22T15:00:21.289Z,21.60
2018-08-22T15:02:50.705Z,22.52
2018-08-22T15:05:19.589Z,20.73
2018-08-22T15:07:49.400Z,17.57
2018-08-22T15:10:19.105Z,18.50
2018-08-22T15:12:49.342Z,18.32
2018-08-22T15:15:18.870Z,17.48
2018-08-22T15:17:48.130Z,17.42
2018-08-22T15:20:17.369Z,16.20
2018-08-22T15:22:46.549Z,17.47
2018-08-22T15:25:15.668Z,15.85
2018-08-22T15:27:45.270Z,16.57
2018-08-22T15:30:15.077Z,16.73
2018-08-22T15:32:44.238Z,17.80
2018-08-22T15:35:13.515Z,16.67
2018-08-22T15:37:42.923Z,17.27
2018-08-22T15:40:13.103Z,14.45
2018-08-22T15:42:42.388Z,15.45
2018-08-22T15:45:12.224Z,15.03
2018-08-22T15:47:41.706Z,14.78
2018-08-22T15:50:10.885Z,14.73
2018-08-22T15:52:40.325Z,14.83
2018-08-22T15:55:13.087Z,13.75
2018-08-22T15:57:59.488Z,13.93
2018-08-22T16:00:50.861Z,14.55
2018-08-22T16:03:20.474Z,12.28
2018-08-22T16:05:50.337Z,12.73
2018-08-22T16:08:22.070Z,11.73
2018-08-22T16:10:51.327Z,12.50
2018-08-22T16:13:25.785Z,13.75
2018-08-22T16:15:56.050Z,12.90
2018-08-22T16:18:25.566Z,13.13
2018-08-22T16:20:57.950Z,11.20
2018-08-22T16:23:30.116Z,9.97
2018-08-22T16:26:00.530Z,9.37
2018-08-22T16:28:49.860Z,9.10
2018-08-22T16:31:19.319Z,10.20
2018-08-22T16:33:48.625Z,10.38
2018-08-22T16:36:23.175Z,10.10
2018-08-22T16:38:52.375Z,11.60
2018-08-22T16:41:21.804Z,9.80
2018-08-22T16:43:51.033Z,11.27
2018-08-22T16:46:20.307Z,10.20
2018-08-22T16:48:53.221Z,9.03
2018-08-22T16:51:22.971Z,9.75
2018-08-22T16:53:59.825Z,9.40
2018-08-22T16:56:30.549Z,8.90
2018-08-22T16:59:05.008Z,8.48
2018-08-22T17:01:34.068Z,9.40
2018-08-22T17:04:03.275Z,9.78
2018-08-22T17:06:32.583Z,9.25
2018-08-22T17:09:01.738Z,9.03
2018-08-22T17:11:30.862Z,8.50
2018-08-22T17:14:00.590Z,9.03
2018-08-22T17:16:29.731Z,9.53
2018-08-22T17:18:58.967Z,8.17
2018-08-22T17:21:28.123Z,8.13
2018-08-22T17:23:57.363Z,8.83
2018-08-22T17:26:26.404Z,9.27
2018-08-22T17:28:57.154Z,8.57
2018-08-22T17:31:27.884Z,8.50
2018-08-22T17:33:58.510Z,9.50
2018-08-22T17:36:27.665Z,7.93
2018-08-22T17:38:58.113Z,7.57
2018-08-22T17:41:29.153Z,8.17
2018-08-22T17:44:08.009Z,8.23
2018-08-22T17:46:42.201Z,8.93
2018-08-22T17:49:11.836Z,8.50
2018-08-22T17:51:58.205Z,8.20
2018-08-22T17:54:27.966Z,8.30
2018-08-22T17:57:13.348Z,7.80
2018-08-22T17:59:43.803Z,7.97
2018-08-22T18:02:13.702Z,8.23
2018-08-22T18:04:56.258Z,8.07
2018-08-22T18:07:26.429Z,8.20
2018-08-22T18:09:56.848Z,8.27
2018-08-22T18:12:28.319Z,8.23
2018-08-22T18:15:00.232Z,7.93
2018-08-22T18:17:29.403Z,7.90
2018-08-22T18:19:58.836Z,7.50
2018-08-22T18:22:32.349Z,7.83
2018-08-22T18:25:01.857Z,7.60
2018-08-22T18:27:31.261Z,7.40
2018-08-22T18:30:00.499Z,8.07
2018-08-22T18:32:29.735Z,8.17
2018-08-22T18:35:10.927Z,7.37
2018-08-22T18:37:41.678Z,7.40
2018-08-22T18:40:18.045Z,7.43
2018-08-22T18:42:49.975Z,7.07
2018-08-22T18:45:20.153Z,7.03
2018-08-22T18:47:49.356Z,7.50
2018-08-22T18:50:19.037Z,7.83
2018-08-22T18:52:51.273Z,7.77
2018-08-22T18:55:26.264Z,7.65
2018-08-22T18:57:56.576Z,7.37
2018-08-22T19:00:25.996Z,6.93
2018-08-22T19:02:56.254Z,7.20
2018-08-22T19:05:30.388Z,6.67
2018-08-22T19:08:07.291Z,7.30
2018-08-22T19:10:37.490Z,7.20
2018-08-22T19:13:11.936Z,7.62
2018-08-22T19:15:42.431Z,9.53
2018-08-22T19:18:12.905Z,8.47
2018-08-22T19:20:42.528Z,7.70
2018-08-22T19:23:11.908Z,7.10
2018-08-22T19:25:42.006Z,8.13
2018-08-22T19:28:11.164Z,7.97
2018-08-22T19:30:40.657Z,7.73
2018-08-22T19:33:13.714Z,7.90
2018-08-22T19:35:43.415Z,7.65
2018-08-22T19:38:17.215Z,8.50
2018-08-22T19:40:46.358Z,8.08
2018-08-22T19:43:15.850Z,8.33
2018-08-22T19:45:45.369Z,8.57
2018-08-22T19:48:14.969Z,8.07
2018-08-22T19:50:44.176Z,9.07
2018-08-22T19:53:13.442Z,8.53
2018-08-22T19:55:42.972Z,8.60
2018-08-22T19:58:14.796Z,8.90
2018-08-22T20:00:44.237Z,10.20
2018-08-22T20:03:19.384Z,8.90
2018-08-22T20:05:54.347Z,9.40
2018-08-22T20:08:28.397Z,9.53
2018-08-22T20:10:59.299Z,9.03
2018-08-22T20:13:46.442Z,9.70
2018-08-22T20:16:16.724Z,10.13
2018-08-22T20:18:50.431Z,9.90
2018-08-22T20:21:25.070Z,10.30
2018-08-22T20:23:55.219Z,9.80
2018-08-22T20:26:25.185Z,10.20
2018-08-22T20:28:55.567Z,10.60
2018-08-22T20:31:24.746Z,11.10
2018-08-22T20:34:14.571Z,10.83
2018-08-22T20:36:46.492Z,9.80
2018-08-22T20:39:16.286Z,11.33
2018-08-22T20:41:45.883Z,10.30
2018-08-22T20:44:21.247Z,10.87
2018-08-22T20:46:50.790Z,10.97
2018-08-22T20:49:20.912Z,10.90
2018-08-22T20:51:50.335Z,10.70
2018-08-22T20:54:23.656Z,10.60
2018-08-22T20:56:58.241Z,11.77
2018-08-22T20:59:27.567Z,11.50
2018-08-22T21:02:01.200Z,13.62
2018-08-22T21:04:30.614Z,12.30
2018-08-22T21:09:35.429Z,11.97
2018-08-22T21:12:05.306Z,12.23
2018-08-22T21:14:34.364Z,12.98
2018-08-22T21:17:04.033Z,14.40
2018-08-22T21:19:33.143Z,14.53
2018-08-22T21:22:02.449Z,15.77
2018-08-22T21:24:31.944Z,17.23
2018-08-22T21:27:01.312Z,17.20
2018-08-22T21:29:31.038Z,16.93
2018-08-22T21:32:02.054Z,17.37
2018-08-22T21:34:31.367Z,17.30
2018-08-22T21:37:01.169Z,17.97
2018-08-22T21:39:30.515Z,18.40
2018-08-22T21:42:00.088Z,19.90
2018-08-22T21:44:29.324Z,20.53
2018-08-22T21:47:04.015Z,20.20
2018-08-22T21:49:33.336Z,20.60
2018-08-22T21:52:02.818Z,19.85
2018-08-22T21:54:32.411Z,18.90
2018-08-22T21:57:01.642Z,20.47
2018-08-22T22:02:14.441Z,18.77
2018-08-22T22:04:45.077Z,18.00
2018-08-22T22:07:16.174Z,19.40
2018-08-22T22:09:47.325Z,20.00
2018-08-22T22:12:22.326Z,20.23
2018-08-22T22:14:52.669Z,21.13
2018-08-22T22:17:23.391Z,21.07
2018-08-22T22:19:54.564Z,20.52
2018-08-22T22:22:26.397Z,20.40
2018-08-22T22:25:03.482Z,21.00
2018-08-22T22:27:34.818Z,20.13
2018-08-22T22:30:07.428Z,23.40
2018-08-22T22:32:37.454Z,23.45
2018-08-22T22:35:06.822Z,22.85
2018-08-22T22:37:36.138Z,25.80
2018-08-22T22:40:07.419Z,24.40
2018-08-22T22:42:38.712Z,25.47
2018-08-22T22:45:10.417Z,25.53
2018-08-22T22:47:42.313Z,27.55
2018-08-22T22:50:13.978Z,25.53
2018-08-22T22:52:46.551Z,24.93
2018-08-22T22:55:16.712Z,23.10
2018-08-22T22:57:47.602Z,22.90
2018-08-22T23:00:20.279Z,22.17
2018-08-22T23:02:57.129Z,21.00
2018-08-22T23:05:30.646Z,20.13
2018-08-22T23:08:04.057Z,19.90
2018-08-22T23:10:34.474Z,20.20
2018-08-22T23:13:06.518Z,19.40
2018-08-22T23:15:39.253Z,18.63
2018-08-22T23:18:09.802Z,18.87
2018-08-22T23:20:44.187Z,19.10
2018-08-22T23:23:38.943Z,19.13
2018-08-22T23:26:20.735Z,19.30
2018-08-22T23:28:50.676Z,19.67
2018-08-22T23:31:21.626Z,19.73
2018-08-22T23:33:52.027Z,20.40
2018-08-22T23:36:22.402Z,20.80
2018-08-22T23:38:51.865Z,20.90
2018-08-22T23:41:22.192Z,19.17
2018-08-22T23:43:53.532Z,19.73
2018-08-22T23:46:23.654Z,18.63
2018-08-22T23:48:57.425Z,19.10
2018-08-22T23:51:27.805Z,16.63
2018-08-22T23:54:03.780Z,17.67
2018-08-22T23:56:33.164Z,17.40
2018-08-22T23:59:02.633Z,18.77
